createdAt,value
2022-11-18T00:02:04.633Z,100383.50
2022-11-18T00:05:08.035Z,100397.66
2022-11-18T00:08:10.969Z,100390.63
2022-11-18T00:11:37.415Z,100407.53
2022-11-18T00:14:39.359Z,100399.53
2022-11-18T00:17:42.334Z,100400.50
2022-11-18T00:20:45.208Z,100398.66
2022-11-18T00:23:49.897Z,100399.53
2022-11-18T00:26:55.105Z,100395.19
2022-11-18T00:29:58.059Z,100407.63
2022-11-18T00:33:00.981Z,100399.72
2022-11-18T00:36:04.734Z,100404.19
2022-11-18T00:39:07.642Z,100398.00
2022-11-18T00:42:29.648Z,100385.63
2022-11-18T00:45:32.486Z,100399.88
2022-11-18T00:48:35.616Z,100399.88
2022-11-18T00:51:38.575Z,100402.63
2022-11-18T00:54:41.450Z,100413.28
2022-11-18T00:57:45.694Z,100399.09
2022-11-18T01:00:52.894Z,100409.75
2022-11-18T01:03:56.114Z,100412.41
2022-11-18T01:06:59.058Z,100417.75
2022-11-18T01:10:01.976Z,100416.84
2022-11-18T01:13:21.197Z,100409.75
2022-11-18T01:16:27.626Z,100405.34
2022-11-18T01:19:30.594Z,100394.72
2022-11-18T01:22:33.491Z,100401.75
2022-11-18T01:25:37.927Z,100400.03
2022-11-18T01:28:42.327Z,100400.09
2022-11-18T01:32:01.940Z,100396.56
2022-11-18T01:35:08.856Z,100396.56
2022-11-18T01:38:14.357Z,100400.97
2022-11-18T01:41:17.924Z,100408.09
2022-11-18T01:45:00.469Z,100410.69
2022-11-18T01:48:09.388Z,100398.31
2022-11-18T01:51:16.241Z,100403.63
2022-11-18T01:54:23.772Z,100395.63
2022-11-18T01:57:28.154Z,100400.03
2022-11-18T02:00:32.389Z,100401.81
2022-11-18T02:03:36.093Z,100403.72
2022-11-18T02:06:39.259Z,100404.56
2022-11-18T02:09:42.303Z,100400.19
2022-11-18T02:12:45.422Z,100404.56
2022-11-18T02:16:01.594Z,100404.56
2022-11-18T02:19:16.198Z,100401.88
2022-11-18T02:22:36.587Z,100394.78
2022-11-18T02:25:49.572Z,100399.22
2022-11-18T02:29:04.918Z,100398.31
2022-11-18T02:32:14.376Z,100405.41
2022-11-18T02:35:22.630Z,100413.41
2022-11-18T02:38:29.454Z,100401.88
2022-11-18T02:41:35.453Z,100398.41
2022-11-18T02:44:45.299Z,100411.69
2022-11-18T02:47:50.966Z,100408.16
2022-11-18T02:50:54.910Z,100417.84
2022-11-18T02:54:03.378Z,100407.31
2022-11-18T02:57:07.174Z,100405.50
2022-11-18T03:00:12.759Z,100414.38
2022-11-18T03:03:27.028Z,100405.50
2022-11-18T03:06:33.433Z,100412.53
2022-11-18T03:09:39.083Z,100417.84
2022-11-18T03:12:47.930Z,100411.59
2022-11-18T03:16:00.282Z,100417.84
2022-11-18T03:19:10.890Z,100417.84
2022-11-18T03:22:21.186Z,100421.47
2022-11-18T03:25:31.994Z,100425.84
2022-11-18T03:28:39.981Z,100425.00
2022-11-18T03:31:48.339Z,100426.81
2022-11-18T03:34:57.275Z,100440.97
2022-11-18T03:38:06.120Z,100440.03
2022-11-18T03:41:12.982Z,100439.16
2022-11-18T03:44:20.986Z,100436.50
2022-11-18T03:47:29.953Z,100444.47
2022-11-18T03:50:37.023Z,100449.81
2022-11-18T03:53:44.201Z,100446.22
2022-11-18T03:56:53.871Z,100451.53
2022-11-18T04:00:03.928Z,100447.03
2022-11-18T04:03:10.346Z,100449.69
2022-11-18T04:06:22.694Z,100461.97
2022-11-18T04:09:30.556Z,100461.00
2022-11-18T04:12:39.125Z,100470.66
2022-11-18T04:15:44.002Z,100469.72
2022-11-18T04:18:48.350Z,100474.94
2022-11-18T04:21:51.739Z,100474.88
2022-11-18T04:24:54.803Z,100468.59
2022-11-18T04:27:57.915Z,100468.59
2022-11-18T04:31:00.911Z,100461.41
2022-11-18T04:34:05.251Z,100465.00
2022-11-18T04:37:08.188Z,100477.38
2022-11-18T04:40:12.030Z,100460.44
2022-11-18T04:43:14.938Z,100468.53
2022-11-18T04:46:17.882Z,100470.31
2022-11-18T04:49:22.305Z,100480.13
2022-11-18T04:52:25.254Z,100480.13
2022-11-18T04:55:28.361Z,100481.06
2022-11-18T04:58:31.346Z,100490.84
2022-11-18T05:01:34.892Z,100478.47
2022-11-18T05:04:39.242Z,100487.41
2022-11-18T05:07:42.277Z,100491.84
2022-11-18T05:10:45.266Z,100492.81
2022-11-18T05:13:47.177Z,100503.47
2022-11-18T05:16:50.105Z,100503.56
2022-11-18T05:19:54.466Z,100503.63
2022-11-18T05:22:57.454Z,100502.78
2022-11-18T05:26:04.313Z,100501.03
2022-11-18T05:29:07.329Z,100507.31
2022-11-18T05:32:10.306Z,100512.66
2022-11-18T05:35:14.683Z,100513.63
2022-11-18T05:38:17.626Z,100511.84
2022-11-18T05:41:38.266Z,100526.06
2022-11-18T05:44:41.239Z,100526.06
2022-11-18T05:47:58.078Z,100530.53
2022-11-18T05:51:02.440Z,100534.97
2022-11-18T05:54:08.174Z,100531.41
2022-11-18T05:57:11.094Z,100547.47
2022-11-18T06:00:15.475Z,100542.97
2022-11-18T06:03:26.200Z,100547.47
2022-11-18T06:06:34.758Z,100540.31
2022-11-18T06:09:42.627Z,100547.38
2022-11-18T06:12:48.916Z,100553.56
2022-11-18T06:15:52.028Z,100554.44
2022-11-18T06:18:55.388Z,100557.94
2022-11-18T06:22:00.138Z,100579.22
2022-11-18T06:25:04.395Z,100578.25
2022-11-18T06:28:09.016Z,100586.16
2022-11-18T06:31:12.037Z,100586.09
2022-11-18T06:34:15.398Z,100584.34
2022-11-18T06:37:21.722Z,100591.41
2022-11-18T06:40:24.642Z,100594.06
2022-11-18T06:43:43.151Z,100589.69
2022-11-18T06:46:58.225Z,100591.41
2022-11-18T06:50:01.170Z,100596.75
2022-11-18T06:53:05.493Z,100605.66
2022-11-18T06:56:09.970Z,100620.69
2022-11-18T06:59:12.923Z,100624.28
2022-11-18T07:02:18.839Z,100622.59
2022-11-18T07:05:21.797Z,100634.06
2022-11-18T07:08:26.127Z,100629.69
2022-11-18T07:11:29.986Z,100630.56
2022-11-18T07:14:33.279Z,100634.16
2022-11-18T07:17:36.253Z,100642.13
2022-11-18T07:20:39.218Z,100648.41
2022-11-18T07:23:44.061Z,100652.00
2022-11-18T07:26:47.300Z,100644.94
2022-11-18T07:29:50.219Z,100644.06
2022-11-18T07:32:53.250Z,100651.19
2022-11-18T07:35:56.207Z,100655.72
2022-11-18T07:39:01.596Z,100655.72
2022-11-18T07:42:04.832Z,100655.72
2022-11-18T07:45:08.891Z,100664.66
2022-11-18T07:48:11.812Z,100667.41
2022-11-18T07:51:17.078Z,100668.25
2022-11-18T07:54:21.498Z,100668.25
2022-11-18T07:57:24.577Z,100670.06
2022-11-18T08:00:27.614Z,100661.19
2022-11-18T08:03:30.606Z,100669.19
2022-11-18T08:06:34.412Z,100676.34
2022-11-18T08:09:38.759Z,100682.50
2022-11-18T08:12:41.782Z,100680.78
2022-11-18T08:15:44.976Z,100686.13
2022-11-18T08:18:48.501Z,100679.91
2022-11-18T08:21:51.502Z,100679.84
2022-11-18T08:24:55.867Z,100682.50
2022-11-18T08:27:58.898Z,100688.59
2022-11-18T08:31:02.066Z,100692.03
2022-11-18T08:34:07.575Z,100699.19
2022-11-18T08:37:10.493Z,100701.78
2022-11-18T08:40:15.029Z,100692.88
2022-11-18T08:43:17.964Z,100707.97
2022-11-18T08:46:21.008Z,100702.59
2022-11-18T08:49:28.262Z,100702.59
2022-11-18T08:52:34.216Z,100683.97
2022-11-18T08:55:38.524Z,100690.16
2022-11-18T08:58:41.626Z,100692.72
2022-11-18T09:01:44.706Z,100690.06
2022-11-18T09:04:48.523Z,100692.72
2022-11-18T09:07:51.533Z,100705.13
2022-11-18T09:10:56.407Z,100712.22
2022-11-18T09:17:23.599Z,100708.69
2022-11-18T09:20:26.960Z,100712.31
2022-11-18T09:23:30.066Z,100709.66
2022-11-18T09:26:34.511Z,100729.22
2022-11-18T09:29:37.830Z,100723.00
2022-11-18T09:32:40.774Z,100724.81
2022-11-18T09:35:44.108Z,100727.47
2022-11-18T09:38:51.672Z,100723.06
2022-11-18T09:42:07.610Z,100738.13
2022-11-18T09:45:24.566Z,100733.72
2022-11-18T09:48:42.773Z,100739.03
2022-11-18T09:51:47.922Z,100734.59
2022-11-18T09:54:51.874Z,100735.47
2022-11-18T09:57:58.849Z,100749.69
2022-11-18T10:01:02.604Z,100744.38
2022-11-18T10:04:05.893Z,100758.59
2022-11-18T10:07:17.553Z,100755.94
2022-11-18T10:10:24.443Z,100756.91
2022-11-18T10:13:41.162Z,100757.75
2022-11-18T10:16:58.235Z,100763.13
2022-11-18T10:20:18.502Z,100775.53
2022-11-18T10:23:25.705Z,100772.88
2022-11-18T10:26:38.248Z,100770.22
2022-11-18T10:29:43.155Z,100771.13
2022-11-18T10:33:00.432Z,100780.84
2022-11-18T10:36:26.004Z,100772.88
2022-11-18T10:39:29.034Z,100785.22
2022-11-18T10:42:38.665Z,100781.72
2022-11-18T10:45:43.339Z,100780.84
2022-11-18T10:48:46.302Z,100784.44
2022-11-18T10:52:05.450Z,100781.78
2022-11-18T10:55:23.146Z,100784.44
2022-11-18T10:58:27.222Z,100776.44
2022-11-18T11:01:31.595Z,100775.63
2022-11-18T11:04:36.657Z,100780.94
2022-11-18T11:07:39.879Z,100783.50
2022-11-18T11:10:54.522Z,100799.50
2022-11-18T11:14:18.892Z,100791.50
2022-11-18T11:17:30.164Z,100790.56
2022-11-18T11:20:33.175Z,100795.88
2022-11-18T11:23:36.128Z,100811.00
2022-11-18T11:30:19.389Z,100804.81
2022-11-18T11:33:34.269Z,100818.13
2022-11-18T11:36:47.924Z,100809.28
2022-11-18T11:40:08.410Z,100811.06
2022-11-18T11:43:28.716Z,100810.13
2022-11-18T11:46:44.079Z,100811.00
2022-11-18T11:49:54.843Z,100795.03
2022-11-18T11:53:16.668Z,100806.53
2022-11-18T11:56:28.974Z,100802.06
2022-11-18T11:59:40.298Z,100798.53
2022-11-18T12:02:58.599Z,100809.19
2022-11-18T12:06:02.988Z,100798.53
2022-11-18T12:09:13.015Z,100793.22
2022-11-18T12:12:38.500Z,100805.69
2022-11-18T12:15:51.400Z,100789.72
2022-11-18T12:18:59.716Z,100798.63
2022-11-18T12:22:06.476Z,100803.06
2022-11-18T12:25:57.253Z,100783.50
2022-11-18T12:29:25.087Z,100787.88
2022-11-18T12:32:31.626Z,100787.97
2022-11-18T12:35:35.162Z,100804.72
2022-11-18T12:38:38.287Z,100818.91
2022-11-18T12:42:14.603Z,100813.59
2022-11-18T12:45:57.081Z,100818.00
2022-11-18T12:49:39.922Z,100825.97
2022-11-18T12:52:54.032Z,100822.44
2022-11-18T12:55:58.532Z,100819.78
2022-11-18T12:59:03.594Z,100821.56
2022-11-18T13:02:19.301Z,100824.25
2022-11-18T13:05:24.571Z,100837.47
2022-11-18T13:08:30.041Z,100849.91
2022-11-18T13:11:47.639Z,100850.75
2022-11-18T13:15:10.258Z,100845.44
2022-11-18T13:18:17.781Z,100858.66
2022-11-18T13:21:43.014Z,100864.88
2022-11-18T13:24:47.566Z,100862.19
2022-11-18T13:27:55.994Z,100856.94
2022-11-18T13:31:06.406Z,100870.31
2022-11-18T13:34:17.892Z,100858.84
2022-11-18T13:37:23.237Z,100866.03
2022-11-18T13:40:28.202Z,100858.19
2022-11-18T13:43:32.361Z,100868.84
2022-11-18T13:46:37.118Z,100857.34
2022-11-18T13:49:51.323Z,100862.69
2022-11-18T13:53:05.090Z,100868.84
2022-11-18T13:56:16.881Z,100870.66
2022-11-18T13:59:21.658Z,100870.66
2022-11-18T14:02:26.074Z,100879.47
2022-11-18T14:05:29.307Z,100884.81
2022-11-18T14:08:33.858Z,100878.66
2022-11-18T14:11:39.197Z,100891.00
2022-11-18T14:14:43.598Z,100881.22
2022-11-18T14:17:58.995Z,100893.59
2022-11-18T14:21:03.762Z,100899.78
2022-11-18T14:24:07.237Z,100905.03
2022-11-18T14:27:29.513Z,100907.69
2022-11-18T14:30:35.936Z,100904.97
2022-11-18T14:33:40.566Z,100908.50
2022-11-18T14:36:43.502Z,100912.00
2022-11-18T14:39:56.462Z,100914.66
2022-11-18T14:43:00.197Z,100918.25
2022-11-18T14:46:06.480Z,100924.44
2022-11-18T14:49:15.251Z,100928.91
2022-11-18T14:52:18.250Z,100932.47
2022-11-18T14:55:21.184Z,100936.06
2022-11-18T14:58:24.195Z,100945.78
2022-11-18T15:01:30.485Z,100936.06
2022-11-18T15:04:35.490Z,100941.38
2022-11-18T15:07:38.504Z,100945.84
2022-11-18T15:10:41.496Z,100952.03
2022-11-18T15:13:44.447Z,100949.38
2022-11-18T15:16:47.403Z,100952.03
2022-11-18T15:19:51.704Z,100965.34
2022-11-18T15:22:54.668Z,100959.09
2022-11-18T15:25:58.043Z,100973.31
2022-11-18T15:29:01.023Z,100968.00
2022-11-18T15:32:05.300Z,100974.25
2022-11-18T15:35:12.106Z,100977.00
2022-11-18T15:38:15.191Z,100979.66
2022-11-18T15:41:21.012Z,100982.22
2022-11-18T15:44:24.687Z,100978.78
2022-11-18T15:47:27.639Z,100971.75
2022-11-18T15:50:32.176Z,100976.19
2022-11-18T15:53:35.334Z,100977.06
2022-11-18T15:56:39.777Z,100977.94
2022-11-18T15:59:42.829Z,100988.59
2022-11-18T16:02:45.799Z,100984.09
2022-11-18T16:05:50.144Z,100984.09
2022-11-18T16:08:59.302Z,100989.44
2022-11-18T16:12:20.270Z,100993.91
2022-11-18T16:15:40.458Z,100993.03
2022-11-18T16:18:43.678Z,101005.47
2022-11-18T16:21:50.421Z,101000.16
2022-11-18T16:24:53.549Z,101011.69
2022-11-18T16:27:59.629Z,101007.25
2022-11-18T16:31:24.442Z,101017.91
2022-11-18T16:34:28.807Z,101024.03
2022-11-18T16:37:33.159Z,101018.72
2022-11-18T16:40:36.196Z,101024.91
2022-11-18T16:43:39.413Z,101025.78
2022-11-18T16:46:43.815Z,101025.78
2022-11-18T16:49:46.898Z,101023.13
2022-11-18T16:52:51.329Z,101031.09
2022-11-18T16:55:54.593Z,101029.34
2022-11-18T16:58:59.431Z,101042.63
2022-11-18T17:02:03.093Z,101041.75
2022-11-18T17:05:06.827Z,101052.41
2022-11-18T17:08:11.130Z,101054.19
2022-11-18T17:11:14.248Z,101055.06
2022-11-18T17:14:17.547Z,101056.84
2022-11-18T17:17:20.582Z,101060.41
2022-11-18T17:20:23.528Z,101060.41
2022-11-18T17:23:29.197Z,101065.63
2022-11-18T17:26:32.346Z,101063.84
2022-11-18T17:29:35.618Z,101062.06
2022-11-18T17:32:38.997Z,101062.94
2022-11-18T17:35:41.959Z,101064.72
2022-11-18T17:38:48.103Z,101073.59
2022-11-18T17:42:08.341Z,101074.50
2022-11-18T17:45:11.631Z,101078.06
2022-11-18T17:48:14.551Z,101082.56
2022-11-18T17:51:17.537Z,101089.69
2022-11-18T17:54:22.661Z,101093.25
2022-11-18T17:57:26.023Z,101095.06
2022-11-18T18:00:31.868Z,101095.91
2022-11-18T18:03:34.800Z,101097.75
2022-11-18T18:06:37.863Z,101088.88
2022-11-18T18:09:42.252Z,101087.94
2022-11-18T18:13:02.742Z,101095.91
2022-11-18T18:16:06.144Z,101106.56
2022-11-18T18:19:10.186Z,101103.00
2022-11-18T18:22:13.158Z,101104.69
2022-11-18T18:25:17.798Z,101102.91
2022-11-18T18:28:20.755Z,101100.25
2022-11-18T18:31:23.721Z,101106.44
2022-11-18T18:34:26.671Z,101115.31
2022-11-18T18:37:29.640Z,101121.50
2022-11-18T18:40:34.798Z,101117.97
2022-11-18T18:43:37.835Z,101122.34
2022-11-18T18:46:40.830Z,101124.19
2022-11-18T18:49:44.855Z,101124.19
2022-11-18T18:52:47.888Z,101130.34
2022-11-18T18:55:56.642Z,101124.19
2022-11-18T18:58:59.686Z,101129.50
2022-11-18T19:02:02.731Z,101133.91
2022-11-18T19:05:06.638Z,101143.63
2022-11-18T19:08:10.167Z,101148.97
2022-11-18T19:11:29.322Z,101149.81
2022-11-18T19:14:34.502Z,101142.69
2022-11-18T19:17:37.663Z,101146.22
2022-11-18T19:20:44.470Z,101145.34
2022-11-18T19:23:47.426Z,101150.69
2022-11-18T19:26:51.884Z,101152.53
2022-11-18T19:29:54.864Z,101163.13
2022-11-18T19:32:58.944Z,101162.28
2022-11-18T19:36:03.138Z,101161.44
2022-11-18T19:39:06.146Z,101170.28
2022-11-18T19:42:10.990Z,101173.84
2022-11-18T19:45:14.526Z,101180.91
2022-11-18T19:48:17.478Z,101177.38
2022-11-18T19:51:20.436Z,101191.56
2022-11-18T19:54:23.482Z,101192.50
2022-11-18T19:57:27.950Z,101188.06
2022-11-18T20:00:30.993Z,101196.97
2022-11-18T20:03:33.919Z,101192.53
2022-11-18T20:06:37.542Z,101194.31
2022-11-18T20:09:40.552Z,101200.56
2022-11-18T20:12:44.865Z,101203.22
2022-11-18T20:15:47.802Z,101199.72
2022-11-18T20:18:54.166Z,101195.31
2022-11-18T20:21:57.153Z,101198.84
2022-11-18T20:25:01.268Z,101197.91
2022-11-18T20:28:05.668Z,101193.50
2022-11-18T20:31:11.614Z,101205.88
2022-11-18T20:34:14.981Z,101211.19
2022-11-18T20:37:18.937Z,101219.25
2022-11-18T20:40:21.939Z,101227.19
2022-11-18T20:43:26.268Z,101230.78
2022-11-18T20:46:29.549Z,101239.69
2022-11-18T20:49:32.599Z,101246.75
2022-11-18T20:52:35.747Z,101244.09
2022-11-18T20:55:39.115Z,101253.81
2022-11-18T20:58:43.925Z,101248.47
2022-11-18T21:01:46.967Z,101244.91
2022-11-18T21:04:50.047Z,101251.97
2022-11-18T21:07:53.714Z,101240.44
2022-11-18T21:11:02.001Z,101247.50
2022-11-18T21:14:24.022Z,101245.75
2022-11-18T21:17:28.003Z,101241.22
2022-11-18T21:20:49.036Z,101242.97
2022-11-18T21:23:54.978Z,101250.00
2022-11-18T21:26:59.108Z,101244.69
2022-11-18T21:30:03.555Z,101250.00
2022-11-18T21:33:07.278Z,101250.94
2022-11-18T21:36:10.517Z,101262.50
2022-11-18T21:39:14.237Z,101260.81
2022-11-18T21:42:17.178Z,101268.78
2022-11-18T21:45:21.653Z,101271.44
2022-11-18T21:48:24.625Z,101275.94
2022-11-18T21:51:27.766Z,101275.97
2022-11-18T21:54:31.624Z,101272.44
2022-11-18T21:57:34.658Z,101281.38
2022-11-18T22:00:40.135Z,101282.25
2022-11-18T22:03:44.894Z,101276.97
2022-11-18T22:06:47.874Z,101272.59
2022-11-18T22:09:50.887Z,101269.91
2022-11-18T22:12:53.897Z,101276.13
2022-11-18T22:16:02.282Z,101284.03
2022-11-18T22:19:08.320Z,101281.44
2022-11-18T22:22:11.521Z,101283.16
2022-11-18T22:25:14.530Z,101281.38
2022-11-18T22:28:17.562Z,101276.06
2022-11-18T22:31:23.087Z,101276.84
2022-11-18T22:34:26.476Z,101275.03
2022-11-18T22:37:29.623Z,101280.34
2022-11-18T22:40:32.544Z,101280.34
2022-11-18T22:43:36.126Z,101279.38
2022-11-18T22:46:42.145Z,101287.34
2022-11-18T22:49:45.526Z,101291.72
2022-11-18T22:52:48.513Z,101291.69
2022-11-18T22:55:51.570Z,101285.50
2022-11-18T22:58:54.578Z,101279.22
2022-11-18T23:01:59.312Z,101281.03
2022-11-18T23:05:02.375Z,101286.38
2022-11-18T23:08:05.666Z,101281.09
2022-11-18T23:11:11.048Z,101280.25
2022-11-18T23:14:13.081Z,101284.69
2022-11-18T23:17:17.462Z,101274.13
2022-11-18T23:20:20.454Z,101277.69
2022-11-18T23:23:23.449Z,101286.59
2022-11-18T23:26:26.887Z,101289.28
2022-11-18T23:29:29.898Z,101290.25
2022-11-18T23:32:34.302Z,101287.56
2022-11-18T23:35:37.242Z,101284.03
2022-11-18T23:38:40.461Z,101282.28
2022-11-18T23:41:43.375Z,101281.44
2022-11-18T23:44:46.474Z,101283.25
2022-11-18T23:47:50.794Z,101280.56
2022-11-18T23:50:54.793Z,101282.44
2022-11-18T23:53:58.685Z,101289.53
2022-11-18T23:57:01.589Z,101286.00
